TimeMST,TemperatureF,Dew PointF,Humidity,Sea Level PressureIn,VisibilityMPH,Wind Direction,Wind SpeedMPH,Gust SpeedMPH,PrecipitationIn,Events,Conditions,WindDirDegrees,DateUTC
12:52 AM,42.8,35.6,76,30.10,10.0,NNW,15.0,-,N/A,,Partly Cloudy,340,2012-11-06 07:52:00
1:52 AM,42.8,32.0,66,30.12,10.0,NNW,13.8,-,N/A,,Partly Cloudy,340,2012-11-06 08:52:00
2:52 AM,39.9,34.0,79,30.15,10.0,NNW,12.7,-,N/A,,Clear,340,2012-11-06 09:52:00
3:52 AM,39.9,34.0,79,30.16,10.0,NNW,15.0,-,N/A,,Clear,330,2012-11-06 10:52:00
4:52 AM,37.9,30.9,76,30.20,10.0,NNW,9.2,-,N/A,,Clear,330,2012-11-06 11:52:00
5:52 AM,36.0,28.9,76,30.22,10.0,NW,5.8,-,N/A,,Clear,310,2012-11-06 12:52:00
6:52 AM,35.1,28.0,76,30.24,10.0,WNW,9.2,-,N/A,,Clear,300,2012-11-06 13:52:00
7:52 AM,43.0,32.0,65,30.25,10.0,WNW,8.1,-,N/A,,Clear,300,2012-11-06 14:52:00
8:52 AM,50.0,30.9,48,30.23,10.0,WNW,8.1,-,N/A,,Clear,290,2012-11-06 15:52:00
9:52 AM,52.0,23.0,32,30.22,10.0,NNW,13.8,-,N/A,,Clear,330,2012-11-06 16:52:00
10:52 AM,53.1,21.9,30,30.21,10.0,NNW,13.8,21.9,N/A,,Clear,340,2012-11-06 17:52:00
11:52 AM,55.0,21.9,28,30.18,10.0,North,15.0,20.7,N/A,,Clear,350,2012-11-06 18:52:00
12:52 PM,55.9,21.9,27,30.15,10.0,North,15.0,24.2,N/A,,Clear,360,2012-11-06 19:52:00
1:52 PM,57.0,23.0,27,30.15,10.0,North,15.0,-,N/A,,Clear,350,2012-11-06 20:52:00
2:52 PM,55.9,23.0,28,30.16,10.0,NNW,11.5,-,N/A,,Clear,340,2012-11-06 21:52:00
3:52 PM,52.0,24.1,34,30.17,10.0,North,10.4,-,N/A,,Clear,360,2012-11-06 22:52:00
4:52 PM,42.1,24.1,49,30.20,10.0,North,5.8,-,N/A,,Clear,360,2012-11-06 23:52:00
5:52 PM,37.0,24.1,59,30.21,10.0,Calm,Calm,-,N/A,,Clear,0,2012-11-07 00:52:00
6:52 PM,33.1,23.0,66,30.21,10.0,Calm,Calm,-,N/A,,Clear,0,2012-11-07 01:52:00
7:52 PM,37.0,25.0,62,30.18,10.0,West,3.5,-,N/A,,Clear,260,2012-11-07 02:52:00
8:52 PM,33.1,23.0,66,30.16,10.0,Calm,Calm,-,N/A,,Clear,0,2012-11-07 03:52:00
9:52 PM,37.9,25.0,60,30.14,10.0,SW,5.8,-,N/A,,Clear,220,2012-11-07 04:52:00
10:52 PM,36.0,24.1,62,30.12,10.0,SSE,3.5,-,N/A,,Clear,160,2012-11-07 05:52:00
11:52 PM,36.0,23.0,59,30.12,10.0,SE,4.6,-,N/A,,Clear,140,2012-11-07 06:52:00